Latest Coastal Weather Observations for Norah Head

IDN60701

Issued at 9:55 am EST Tuesday 2 September 2014 (issued every 10 minutes, with the page automatically refreshed every 10 minutes)

About coastal observations | Map of coastal stations | Coastal observations for NSW | Marine services | Other Formats
Station Details ID: 061366 Name: NORAH HEAD AWS Lat: -33.28 Lon: 151.58 Height: 18.8 m
Data from the previous 72 hours. | See also: Recent months at Norah Head
Date/Time
EST
Temp

°C
Wind Pressure Rain
since 9am
mm
Weather Cloud Vis
km
Sea
Height
m
Swell
Dir
 
Speed
knots
Gust
knots
hPa Trend Height
m
Period
s
Dir
02/09:30am 15.6 W 3 5 1009.4 - 0.0 - - - - - - -
02/09:00am 15.2 SW 2 6 1009.6 - 0.0 - - - - - - -
02/08:30am 15.2 W 2 4 1009.9 - 0.0 - - - - - - -
02/08:00am 15.3 S 1 2 1009.6 - 0.0 - - - - - - -
02/07:30am 15.0 SW 1 3 1009.8 - 0.0 - - - - - - -
02/07:00am 15.3 S 6 10 1009.8 - 0.0 - - - - - - -
02/06:30am 15.2 S 7 10 1009.4 - 0.0 - - - - - - -
02/06:00am 15.2 SSW 6 8 1009.1 - 0.0 - - - - - - -
02/05:30am 15.1 WSW 3 5 1008.3 - 0.0 - - - - - - -
02/05:00am 15.3 SSW 5 8 1008.1 - 0.0 - - - - - - -
02/04:30am 15.5 W 6 7 1007.9 - 0.0 - - - - - - -
02/04:00am 15.6 W 8 9 1007.7 - 0.0 - - - - - - -
02/03:30am 15.6 W 8 9 1008.0 - 0.0 - - - - - - -
02/03:00am 15.6 W 8 9 1008.3 - 0.0 - - - - - - -
02/02:30am 15.6 W 6 8 1008.5 - 0.0 - - - - - - -
02/02:00am 15.8 WNW 5 6 1009.1 - 0.0 - - - - - - -
02/01:30am 15.8 NW 7 8 1009.5 - 0.0 - - - - - - -
02/01:00am 15.6 W 4 5 1010.0 - 0.0 - - - - - - -
02/12:30am 15.8 WSW 6 7 1010.5 - 0.0 - - - - - - -
02/12:00am 15.8 WSW 7 8 1010.8 - 0.0 - - - - - - -
 
Date/Time
EST
Temp

°C
Wind Pressure Rain
since 9am
mm
Weather Cloud Vis
km
Sea
Height
m
Swell
Dir
 
Speed
knots
Gust
knots
hPa Trend Height
m
Period
s
Dir
01/11:30pm 16.0 SW 7 8 1011.2 - 0.0 - - - - - - -
01/11:00pm 15.9 SSW 6 8 1011.3 - 0.0 - - - - - - -
01/10:30pm 15.8 W 6 8 1011.6 - 0.0 - - - - - - -
01/10:00pm 16.1 WNW 5 8 1011.7 - 0.0 - - - - - - -
01/09:30pm 16.0 NNW 5 5 1012.2 - 0.0 - - - - - - -
01/09:00pm 15.6 NW 5 5 1012.4 - 0.0 - - - - - - -
01/08:30pm 15.7 WNW 3 5 1012.7 - 0.0 - - - - - - -
01/08:00pm 17.0 NW 6 7 1012.3 - 0.0 - - - - - - -
01/07:30pm 17.8 NW 9 10 1012.0 - 0.0 - - - - - - -
01/07:00pm 17.8 NW 8 10 1011.7 - 0.0 - - - - - - -
01/06:30pm 17.9 SW 9 11 1011.5 - 0.0 - - - - - - -
01/06:00pm 18.5 WSW 8 10 1011.2 - 0.0 - - - - - - -
01/05:30pm 18.6 N 10 10 1011.2 - 0.0 - - - - - - -
01/05:00pm 19.3 N 10 11 1011.1 - 0.0 - - - - - - -
01/04:30pm 19.5 NNW 11 12 1011.1 - 0.0 - - - - - - -
01/04:00pm 19.9 NNW 13 15 1011.0 - 0.0 - - - - - - -
01/03:30pm 20.1 N 12 13 1011.0 - 0.0 - - - - - - -
01/03:00pm 20.5 NNE 5 8 1011.3 - 0.0 - - - - - - -
01/02:30pm 22.1 N 4 8 1011.6 - 0.0 - - - - - - -
01/02:00pm 20.9 E 6 8 1012.3 - 0.0 - - - - - - -
01/01:30pm 21.6 ESE 3 5 1012.8 - 0.0 - - - - - - -
01/01:00pm 22.6 WNW 3 6 1013.1 - 0.0 - - - - - - -
01/12:30pm 22.6 W 4 8 1013.6 - 0.0 - - - - - - -
01/12:00pm 22.4 WNW 3 7 1013.9 - 0.0 - - - - - - -
01/11:30am 21.5 W 5 10 1014.6 - 0.0 - - - - - - -
01/11:00am 21.8 NE 5 6 1015.1 - 0.0 - - - - - - -
01/10:30am 20.5 NNE 5 5 1015.8 - 0.0 - - - - - - -
01/10:00am 18.3 NNE 6 6 1016.3 - 0.0 - - - - - - -
01/09:30am 18.1 N 5 6 1016.9 - 0.0 - - - - - - -
01/09:00am 17.2 NNW 4 5 1017.2 - 0.0 - - - - - - -
01/08:30am 15.9 NNW 4 6 1017.4 - 0.0 - - - - - - -
01/08:00am 14.9 NNW 4 5 1017.2 - 0.0 - - - - - - -
01/07:30am 14.0 NNW 3 5 1017.0 - 0.0 - - - - - - -
01/07:00am 12.7 NW 1 3 1017.0 - 0.0 - - - - - - -
01/06:30am 11.4 NW 3 4 1016.9 - 0.0 - - - - - - -
01/06:00am 11.6 WNW 4 5 1016.7 - 0.0 - - - - - - -
01/05:30am 11.6 WNW 2 3 1016.4 - 0.0 - - - - - - -
01/05:00am 11.6 WNW 2 3 1016.1 - 0.0 - - - - - - -
01/04:30am 12.1 WNW 2 4 1016.1 - 0.0 - - - - - - -
01/04:00am 12.4 W 2 4 1015.9 - 0.0 - - - - - - -
01/03:30am 12.5 NNW 4 6 1015.9 - 0.0 - - - - - - -
01/03:00am 12.5 NW 4 6 1016.0 - 0.0 - - - - - - -
01/02:30am 12.7 WNW 4 5 1016.5 - 0.0 - - - - - - -
01/02:00am 12.6 NW 4 5 1016.7 - 0.0 - - - - - - -
01/01:30am 13.1 NW 4 6 1017.1 - 0.0 - - - - - - -
01/01:00am 13.2 NW 4 5 1017.3 - 0.0 - - - - - - -
01/12:30am 13.4 WNW 4 5 1017.5 - 0.0 - - - - - - -
01/12:00am 13.5 NW 4 6 1017.7 - 0.0 - - - - - - -
 
Date/Time
EST
Temp

°C
Wind Pressure Rain
since 9am
mm
Weather Cloud Vis
km
Sea
Height
m
Swell
Dir
 
Speed
knots
Gust
knots
hPa Trend Height
m
Period
s
Dir
31/11:30pm 13.6 WNW 4 6 1017.9 - 0.0 - - - - - - -
31/11:00pm 13.8 WNW 4 5 1018.0 - 0.0 - - - - - - -
31/10:30pm 13.9 WNW 4 5 1018.1 - 0.0 - - - - - - -
31/10:00pm 14.2 WNW 4 6 1018.2 - 0.0 - - - - - - -
31/09:30pm 14.2 WNW 4 5 1018.0 - 0.0 - - - - - - -
31/09:00pm 14.5 WNW 4 6 1018.3 - 0.0 - - - - - - -
31/08:30pm 15.2 NNW 2 4 1018.1 - 0.0 - - - - - - -
31/08:00pm 15.8 ESE 3 4 1018.1 - 0.0 - - - - - - -
31/07:30pm 16.1 ESE 4 5 1018.0 - 0.0 - - - - - - -
31/07:00pm 16.1 ESE 4 5 1017.8 - 0.0 - - - - - - -
31/06:30pm 16.3 SE 8 9 1017.5 - 0.0 - - - - - - -
31/06:00pm 16.1 SE 7 9 1017.4 - 0.0 - - - - - - -
31/05:30pm 16.5 SE 7 8 1017.3 - 0.0 - - - - - - -
31/05:00pm 16.4 SE 9 11 1017.2 - 0.0 - - - - - - -
31/04:30pm 16.9 SE 8 10 1017.2 - 0.0 - - - - - - -
31/04:00pm 17.4 SSE 9 11 1017.3 - 0.0 - - - - - - -
31/03:30pm 17.7 SSE 9 11 1017.3 - 0.0 - - - - - - -
31/03:00pm 18.1 SSE 10 11 1017.4 - 0.0 - - - - - - -
31/02:30pm 18.4 SSE 11 12 1017.6 - 0.0 - - - - - - -
31/02:00pm 18.1 SSE 11 13 1017.8 - 0.0 - - - - - - -
31/01:30pm 18.0 S 12 13 1018.2 - 0.0 - - - - - - -
31/01:00pm 18.4 S 9 11 1018.5 - 0.0 - - - - - - -
31/12:30pm 17.7 S 9 12 1019.0 - 0.0 - - - - - - -
31/12:00pm 18.0 S 9 11 1019.3 - 0.0 - - - - - - -
31/11:30am 17.9 S 6 9 1019.7 - 0.0 - - - - - - -
31/11:00am 17.6 SSE 6 9 1019.9 - 0.0 - - - - - - -
31/10:30am 17.0 SE 7 10 1020.2 - 0.0 - - - - - - -
31/10:00am 17.0 S 6 10 1020.5 - 0.0 - - - - - - -
31/09:30am 16.4 S 7 11 1020.6 - 0.0 - - - - - - -
31/09:00am 15.9 S 5 9 1020.7 - 0.2 - - - - - - -
31/08:30am 15.4 S 5 8 1020.9 - 0.2 - - - - - - -
31/08:00am 14.1 S 6 10 1020.7 - 0.2 - - - - - - -
31/07:30am 13.4 SSW 4 8 1020.4 - 0.2 - - - - - - -
31/07:00am 12.8 S 7 11 1020.3 - 0.2 - - - - - - -
31/06:30am 12.7 S 7 11 1020.2 - 0.2 - - - - - - -
31/06:00am 12.6 S 6 11 1019.9 - 0.2 - - - - - - -
31/05:30am 12.7 S 7 11 1019.7 - 0.2 - - - - - - -
31/05:00am 12.9 S 7 11 1019.6 - 0.2 - - - - - - -
31/04:30am 12.9 SSW 6 9 1019.6 - 0.2 - - - - - - -
31/04:00am 13.0 S 5 8 1019.6 - 0.2 - - - - - - -
31/03:30am 13.2 SSW 5 8 1019.7 - 0.2 - - - - - - -
31/03:00am 13.4 S 8 13 1019.9 - 0.2 - - - - - - -
31/02:30am 13.4 S 8 14 1020.0 - 0.2 - - - - - - -
31/02:00am 13.5 S 8 13 1020.0 - 0.2 - - - - - - -
31/01:30am 13.7 S 7 12 1020.3 - 0.2 - - - - - - -
31/01:00am 13.7 S 7 11 1020.4 - 0.2 - - - - - - -
31/12:30am 13.7 S 8 16 1020.6 - 0.2 - - - - - - -
31/12:00am 14.0 S 8 13 1020.8 - 0.2 - - - - - - -
 
Date/Time
EST
Temp

°C
Wind Pressure Rain
since 9am
mm
Weather Cloud Vis
km
Sea
Height
m
Swell
Dir
 
Speed
knots
Gust
knots
hPa Trend Height
m
Period
s
Dir
30/11:30pm 14.2 S 6 12 1021.0 - 0.2 - - - - - - -
30/11:00pm 14.4 SSE 9 14 1021.2 - 0.2 - - - - - - -
30/10:30pm 14.7 SSE 11 16 1021.1 - 0.2 - - - - - - -
30/10:00pm 14.8 SSE 13 19 1021.2 - 0.2 - - - - - - -
30/09:30pm 14.8 SSE 15 21 1021.2 - 0.2 - - - - - - -
30/09:00pm 15.0 SSE 14 22 1021.2 - 0.2 - - - - - - -
30/08:30pm 14.9 SSE 13 20 1021.3 - 0.2 - - - - - - -
30/08:00pm 14.9 SSE 15 22 1021.2 - 0.2 - - - - - - -
30/07:30pm 15.0 SSE 13 20 1021.1 - 0.2 - - - - - - -
30/07:00pm 14.9 SSE 14 23 1020.9 - 0.2 - - - - - - -
30/06:30pm 15.3 SE 15 21 1020.9 - 0.2 - - - - - - -
30/06:00pm 15.5 SSE 15 22 1020.7 - 0.0 - - - - - - -
30/05:30pm 15.5 SSE 13 19 1020.6 - 0.0 - - - - - - -
30/05:00pm 15.7 SSE 13 20 1020.7 - 0.0 - - - - - - -
30/04:30pm 15.5 SE 16 23 1020.7 - 0.0 - - - - - - -
30/04:00pm 15.9 SSE 17 24 1020.7 - 0.0 - - - - - - -
30/03:30pm 16.1 SSE 18 25 1020.6 - 0.0 - - - - - - -
30/03:00pm 16.2 SSE 16 23 1020.6 - 0.0 - - - - - - -
30/02:30pm 15.9 SSE 16 22 1020.8 - 0.0 - - - - - - -
30/02:00pm 16.1 SSE 16 23 1021.0 - 0.0 - - - - - - -
30/01:30pm 16.1 SSE 15 21 1021.1 - 0.0 - - - - - - -
30/01:00pm 15.4 S 11 17 1021.3 - 0.0 - - - - - - -
30/12:30pm 15.3 S 14 19 1021.4 - 0.0 - - - - - - -
30/12:00pm 15.2 S 13 19 1021.8 - 0.0 - - - - - - -
30/11:30am 14.9 S 12 18 1022.0 - 0.0 - - - - - - -
30/11:00am 14.2 S 11 17 1022.3 - 0.0 - - - - - - -
30/10:30am 13.6 S 10 16 1022.6 - 0.0 - - - - - - -
30/10:00am 13.1 S 8 14 1022.6 - 0.0 - - - - - - -

Other Formats:

Comma delimited format used in spreadsheet applications
http://www.bom.gov.au/fwo/IDN60701/IDN60701.95770.axf

JavaScript Object Notation format (JSON) in row-major order
http://www.bom.gov.au/fwo/IDN60701/IDN60701.95770.json